createdAt,value
2018-10-09T00:01:37.033Z,5.40
2018-10-09T00:02:42.675Z,5.80
2018-10-09T00:09:06.388Z,6.40
2018-10-09T00:10:18.274Z,6.60
2018-10-09T00:11:21.661Z,6.90
2018-10-09T00:13:31.921Z,6.40
2018-10-09T00:14:35.002Z,6.90
2018-10-09T00:15:40.131Z,6.50
2018-10-09T00:16:47.316Z,6.40
2018-10-09T00:20:01.975Z,6.40
2018-10-09T00:21:16.934Z,6.40
2018-10-09T00:22:11.721Z,6.00
2018-10-09T00:25:34.790Z,5.90
2018-10-09T00:26:36.130Z,6.00
2018-10-09T00:27:37.369Z,5.50
2018-10-09T00:28:44.853Z,6.10
2018-10-09T00:29:54.791Z,6.10
2018-10-09T00:31:02.274Z,6.60
2018-10-09T00:32:06.686Z,6.50
2018-10-09T00:33:12.430Z,6.30
2018-10-09T00:34:25.546Z,6.30
2018-10-09T00:36:33.145Z,6.10
2018-10-09T00:37:36.020Z,6.10
2018-10-09T00:38:41.354Z,6.70
2018-10-09T00:40:44.035Z,6.00
2018-10-09T00:41:47.732Z,5.90
2018-10-09T00:43:09.243Z,5.90
2018-10-09T00:44:00.035Z,5.70
2018-10-09T00:45:15.916Z,6.10
2018-10-09T00:46:23.196Z,6.00
2018-10-09T00:47:19.112Z,5.80
2018-10-09T00:48:27.313Z,6.10
2018-10-09T00:49:24.963Z,6.60
2018-10-09T00:50:41.972Z,6.70
2018-10-09T00:51:40.753Z,6.20
2018-10-09T00:52:48.136Z,6.70
2018-10-09T00:53:54.492Z,6.50
2018-10-09T00:54:50.508Z,6.40
2018-10-09T00:56:16.535Z,6.60
2018-10-09T00:57:19.105Z,6.90
2018-10-09T00:58:18.593Z,6.40
2018-10-09T01:00:24.561Z,6.30
2018-10-09T01:01:34.389Z,6.30
2018-10-09T01:02:42.283Z,6.20
2018-10-09T01:03:55.100Z,6.40
2018-10-09T01:04:52.758Z,6.00
2018-10-09T01:05:51.836Z,6.30
2018-10-09T01:07:01.474Z,6.20
2018-10-09T01:08:02.403Z,6.40
2018-10-09T01:09:11.468Z,6.70
2018-10-09T01:10:23.314Z,6.80
2018-10-09T01:11:31.104Z,6.60
2018-10-09T01:12:30.091Z,6.60
2018-10-09T01:13:39.314Z,6.30
2018-10-09T01:14:51.617Z,6.90
2018-10-09T01:15:40.571Z,7.00
2018-10-09T01:16:52.450Z,6.70
2018-10-09T01:18:02.801Z,7.80
2018-10-09T01:18:59.841Z,6.70
2018-10-09T01:20:17.567Z,7.10
2018-10-09T01:21:05.490Z,7.00
2018-10-09T01:22:25.879Z,6.90
2018-10-09T01:26:41.379Z,7.50
2018-10-09T01:27:53.265Z,7.90
2018-10-09T01:28:52.352Z,8.10
2018-10-09T01:30:08.645Z,7.90
2018-10-09T01:31:00.359Z,7.50
2018-10-09T01:32:10.310Z,7.40
2018-10-09T01:33:16.048Z,6.70
2018-10-09T01:34:18.109Z,6.80
2018-10-09T01:35:28.352Z,6.40
2018-10-09T01:36:36.250Z,6.70
2018-10-09T01:37:34.619Z,6.90
2018-10-09T01:38:52.651Z,6.70
2018-10-09T01:39:55.836Z,6.50
2018-10-09T01:41:11.306Z,6.60
2018-10-09T01:42:05.069Z,6.30
2018-10-09T01:43:03.033Z,6.40
2018-10-09T01:44:09.590Z,7.00
2018-10-09T01:45:15.539Z,6.50
2018-10-09T01:46:16.570Z,6.30
2018-10-09T01:47:34.502Z,6.70
2018-10-09T01:48:35.332Z,6.60
2018-10-09T01:49:34.225Z,6.90
2018-10-09T01:50:40.672Z,6.30
2018-10-09T01:51:51.639Z,6.90
2018-10-09T01:52:49.299Z,6.90
2018-10-09T01:53:58.007Z,7.00
2018-10-09T01:55:07.231Z,6.80
2018-10-09T01:56:07.141Z,7.00
2018-10-09T01:57:14.012Z,7.90
2018-10-09T01:58:22.619Z,7.30
2018-10-09T02:00:35.753Z,7.20
2018-10-09T02:01:46.609Z,7.40
2018-10-09T02:02:43.134Z,6.80
2018-10-09T02:03:51.950Z,8.10
2018-10-09T02:04:53.699Z,7.30
2018-10-09T02:05:56.475Z,7.10
2018-10-09T02:07:09.492Z,7.80
2018-10-09T02:09:19.644Z,8.00
2018-10-09T02:10:31.327Z,7.80
2018-10-09T02:11:26.729Z,7.40
2018-10-09T02:12:33.292Z,8.10
2018-10-09T02:13:36.064Z,8.20
2018-10-09T02:14:56.246Z,7.90
2018-10-09T02:15:39.359Z,8.40
2018-10-09T02:16:56.466Z,8.30
2018-10-09T02:18:01.188Z,8.00
2018-10-09T02:19:06.111Z,8.10
2018-10-09T02:20:16.974Z,7.20
2018-10-09T02:21:26.404Z,6.80
2018-10-09T02:22:29.487Z,7.10
2018-10-09T02:24:34.216Z,7.30
2018-10-09T02:25:41.699Z,7.90
2018-10-09T02:27:39.053Z,8.40
2018-10-09T02:29:02.012Z,8.60
2018-10-09T02:30:06.626Z,8.80
2018-10-09T02:31:04.682Z,8.50
2018-10-09T02:32:20.257Z,8.20
2018-10-09T02:33:15.453Z,7.80
2018-10-09T02:34:29.582Z,8.00
2018-10-09T02:35:37.999Z,8.20
2018-10-09T02:36:36.173Z,8.30
2018-10-09T02:38:46.934Z,8.90
2018-10-09T02:41:03.232Z,8.50
2018-10-09T02:42:14.305Z,9.00
2018-10-09T02:43:00.283Z,8.90
2018-10-09T02:44:11.662Z,9.00
2018-10-09T02:46:42.089Z,8.60
2018-10-09T02:48:34.019Z,9.00
2018-10-09T02:49:38.330Z,9.00
2018-10-09T02:50:57.794Z,8.70
2018-10-09T02:52:05.278Z,8.80
2018-10-09T02:54:07.649Z,8.80
2018-10-09T02:55:08.273Z,8.80
2018-10-09T02:56:27.435Z,8.60
2018-10-09T02:57:17.918Z,8.20
2018-10-09T02:58:26.223Z,8.60
2018-10-09T02:59:25.513Z,8.90
2018-10-09T03:00:49.078Z,8.60
2018-10-09T03:01:38.644Z,8.90
2018-10-09T03:02:49.302Z,8.70
2018-10-09T03:03:56.381Z,9.00
2018-10-09T03:04:53.114Z,9.70
2018-10-09T03:06:04.794Z,8.10
2018-10-09T03:07:21.498Z,7.20
2018-10-09T03:08:16.801Z,7.50
2018-10-09T03:09:24.588Z,7.10
2018-10-09T03:10:24.288Z,6.80
2018-10-09T03:11:28.803Z,7.40
2018-10-09T03:12:33.317Z,7.30
2018-10-09T03:13:39.573Z,8.00
2018-10-09T03:14:50.545Z,8.20
2018-10-09T03:17:02.145Z,7.60
2018-10-09T03:19:12.083Z,8.00
2018-10-09T03:20:25.101Z,7.90
2018-10-09T03:21:25.826Z,8.00
2018-10-09T03:22:18.665Z,7.60
2018-10-09T03:23:25.228Z,8.00
2018-10-09T03:24:30.159Z,8.00
2018-10-09T03:26:50.136Z,8.00
2018-10-09T03:28:02.025Z,8.30
2018-10-09T03:29:01.322Z,9.60
2018-10-09T03:30:13.104Z,8.60
2018-10-09T03:31:13.625Z,8.60
2018-10-09T03:32:21.004Z,8.60
2018-10-09T03:33:21.731Z,8.80
2018-10-09T03:34:25.325Z,9.10
2018-10-09T03:35:32.297Z,9.20
2018-10-09T03:36:35.683Z,9.00
2018-10-09T03:37:54.329Z,9.20
2018-10-09T03:38:52.496Z,8.20
2018-10-09T03:40:01.414Z,8.90
2018-10-09T03:41:18.014Z,9.40
2018-10-09T03:42:10.034Z,8.80
2018-10-09T03:43:06.357Z,8.50
2018-10-09T03:44:24.288Z,8.60
2018-10-09T03:45:30.852Z,7.90
2018-10-09T03:46:32.905Z,8.20
2018-10-09T03:47:34.965Z,8.40
2018-10-09T03:48:47.678Z,8.80
2018-10-09T03:51:57.631Z,8.70
2018-10-09T03:53:15.463Z,8.70
2018-10-09T03:54:11.368Z,8.50
2018-10-09T03:55:07.590Z,8.50
2018-10-09T03:56:16.708Z,8.60
2018-10-09T03:57:27.173Z,8.50
2018-10-09T03:58:36.591Z,8.60
2018-10-09T03:59:44.179Z,8.20
2018-10-09T04:00:33.438Z,8.30
2018-10-09T04:01:56.282Z,8.70
2018-10-09T04:02:58.445Z,9.00
2018-10-09T04:03:52.923Z,8.80
2018-10-09T04:06:06.249Z,9.10
2018-10-09T04:08:15.792Z,8.30
2018-10-09T04:09:21.246Z,8.60
2018-10-09T04:10:21.854Z,8.40
2018-10-09T04:11:29.033Z,8.30
2018-10-09T04:12:44.943Z,8.30
2018-10-09T04:13:43.901Z,8.60
2018-10-09T04:15:55.081Z,8.80
2018-10-09T04:17:01.645Z,9.30
2018-10-09T04:19:17.231Z,9.40
2018-10-09T04:20:30.156Z,8.50
2018-10-09T04:21:23.391Z,8.10
2018-10-09T04:22:27.598Z,8.10
2018-10-09T04:23:35.390Z,8.20
2018-10-09T04:24:51.068Z,8.40
2018-10-09T04:25:45.757Z,8.70
2018-10-09T04:26:57.610Z,8.10
2018-10-09T04:29:03.189Z,9.00
2018-10-09T04:30:00.847Z,8.30
2018-10-09T04:31:10.990Z,8.10
2018-10-09T04:32:16.537Z,7.80
2018-10-09T04:33:27.597Z,7.70
2018-10-09T04:35:40.465Z,8.70
2018-10-09T04:36:49.027Z,8.20
2018-10-09T04:37:45.351Z,9.00
2018-10-09T04:38:52.323Z,8.50
2018-10-09T04:39:57.041Z,9.40
2018-10-09T04:41:02.476Z,9.10
2018-10-09T04:42:10.985Z,9.00
2018-10-09T04:43:20.619Z,8.70
2018-10-09T04:44:16.227Z,9.30
2018-10-09T04:46:39.291Z,9.50
2018-10-09T04:47:29.667Z,9.50
2018-10-09T04:48:45.956Z,9.60
2018-10-09T04:49:47.399Z,9.90
2018-10-09T04:50:57.750Z,9.80
2018-10-09T04:52:07.590Z,10.10
2018-10-09T04:54:03.001Z,10.70
2018-10-09T04:55:24.618Z,10.90
2018-10-09T04:56:08.143Z,10.10
2018-10-09T04:58:39.702Z,9.40
2018-10-09T04:59:44.225Z,9.10
2018-10-09T05:00:45.725Z,9.30
2018-10-09T05:01:58.467Z,9.40
2018-10-09T05:02:58.067Z,9.10
2018-10-09T05:04:10.467Z,9.80
2018-10-09T05:05:11.196Z,10.20
2018-10-09T05:06:08.179Z,10.50
2018-10-09T05:08:21.880Z,10.00
2018-10-09T05:09:27.121Z,9.80
2018-10-09T05:10:31.520Z,9.40
2018-10-09T05:11:55.592Z,9.30
2018-10-09T05:12:50.584Z,9.30
2018-10-09T05:13:58.486Z,9.70
2018-10-09T05:15:01.457Z,9.40
2018-10-09T05:15:50.714Z,8.90
2018-10-09T05:18:20.125Z,8.90
2018-10-09T05:19:16.447Z,8.90
2018-10-09T05:20:41.348Z,9.20
2018-10-09T05:22:40.544Z,8.90
2018-10-09T05:23:51.200Z,9.20
2018-10-09T05:24:50.180Z,9.00
2018-10-09T05:25:40.973Z,9.70
2018-10-09T05:27:53.489Z,9.50
2018-10-09T05:30:16.031Z,8.70
2018-10-09T05:32:22.911Z,9.30
2018-10-09T05:33:28.347Z,9.30
2018-10-09T05:35:31.133Z,10.20
2018-10-09T05:36:52.542Z,10.20
2018-10-09T05:39:05.571Z,9.90
2018-10-09T05:40:07.719Z,10.00
2018-10-09T05:41:03.631Z,10.10
2018-10-09T05:42:09.069Z,9.90
2018-10-09T05:43:31.196Z,10.00
2018-10-09T05:44:33.270Z,9.90
2018-10-09T05:45:33.266Z,9.40
2018-10-09T05:46:44.137Z,9.90
2018-10-09T05:47:44.036Z,10.20
2018-10-09T05:48:40.255Z,10.20
2018-10-09T05:51:01.880Z,10.60
2018-10-09T05:52:20.731Z,10.70
2018-10-09T05:53:16.848Z,10.70
2018-10-09T05:54:14.709Z,10.90
2018-10-09T05:55:23.628Z,10.80
2018-10-09T05:56:22.309Z,11.10
2018-10-09T05:57:40.645Z,10.90
2018-10-09T05:59:03.389Z,11.60
2018-10-09T05:59:44.553Z,11.50
2018-10-09T06:00:47.737Z,11.60
2018-10-09T06:02:03.208Z,11.80
2018-10-09T06:03:11.922Z,10.80
2018-10-09T06:03:56.466Z,11.30
2018-10-09T06:05:20.335Z,11.20
2018-10-09T06:06:22.494Z,10.80
2018-10-09T06:07:36.228Z,10.00
2018-10-09T06:08:36.750Z,11.10
2018-10-09T06:09:24.164Z,10.20
2018-10-09T06:10:54.080Z,10.30
2018-10-09T06:11:32.069Z,10.40
2018-10-09T06:12:50.816Z,10.60
2018-10-09T06:13:51.849Z,11.00
2018-10-09T06:15:02.821Z,9.70
2018-10-09T06:16:10.712Z,10.40
2018-10-09T06:18:12.466Z,11.30
2018-10-09T06:20:24.060Z,10.90
2018-10-09T06:21:54.792Z,11.50
2018-10-09T06:22:59.714Z,11.30
2018-10-09T06:23:45.285Z,11.70
2018-10-09T06:24:47.442Z,10.90
2018-10-09T06:25:46.325Z,11.00
2018-10-09T06:26:56.879Z,10.20
2018-10-09T06:28:09.094Z,11.10
2018-10-09T06:29:16.047Z,11.00
2018-10-09T06:30:12.059Z,11.30
2018-10-09T06:31:33.578Z,11.80
2018-10-09T06:32:30.515Z,11.10
2018-10-09T06:33:44.650Z,11.60
2018-10-09T06:34:37.387Z,11.30
2018-10-09T06:37:00.075Z,10.80
2018-10-09T06:38:05.475Z,10.80
2018-10-09T06:39:10.093Z,11.30
2018-10-09T06:40:11.945Z,11.30
2018-10-09T06:43:28.971Z,11.10
2018-10-09T06:44:24.891Z,11.10
2018-10-09T06:45:53.767Z,11.20
2018-10-09T06:46:35.546Z,11.80
2018-10-09T06:47:40.800Z,11.10
2018-10-09T06:50:53.599Z,12.20
2018-10-09T06:52:01.902Z,12.50
2018-10-09T06:53:11.744Z,12.00
2018-10-09T06:54:07.584Z,12.60
2018-10-09T06:56:32.663Z,12.60
2018-10-09T06:57:30.928Z,12.00
2018-10-09T06:58:45.273Z,12.70
2018-10-09T06:59:57.472Z,12.50
2018-10-09T07:00:52.268Z,12.50
2018-10-09T07:02:06.910Z,12.70
2018-10-09T07:02:59.546Z,12.50
2018-10-09T07:04:01.202Z,13.10
2018-10-09T07:05:14.517Z,12.00
2018-10-09T07:06:17.600Z,12.20
2018-10-09T07:07:26.723Z,12.20
2018-10-09T07:08:34.723Z,12.50
2018-10-09T07:09:31.968Z,12.00
2018-10-09T07:10:43.548Z,12.10
2018-10-09T07:11:43.987Z,12.30
2018-10-09T07:13:54.533Z,12.60
2018-10-09T07:14:55.977Z,12.70
2018-10-09T07:16:03.460Z,12.70
2018-10-09T07:17:11.531Z,12.60
2018-10-09T07:18:20.681Z,13.00
2018-10-09T07:19:28.164Z,12.80
2018-10-09T07:21:35.146Z,13.30
2018-10-09T07:22:47.751Z,13.80
2018-10-09T07:23:39.158Z,14.80
2018-10-09T07:24:45.108Z,13.60
2018-10-09T07:26:06.110Z,14.20
2018-10-09T07:26:58.133Z,14.20
2018-10-09T07:28:10.938Z,13.50
2018-10-09T07:29:09.927Z,13.10
2018-10-09T07:30:16.594Z,14.30
2018-10-09T07:31:24.177Z,14.10
2018-10-09T07:32:28.793Z,14.30
2018-10-09T07:33:32.912Z,13.30
2018-10-09T07:35:38.658Z,13.50
2018-10-09T07:36:55.052Z,14.00
2018-10-09T07:38:53.427Z,14.40
2018-10-09T07:41:10.644Z,14.40
2018-10-09T07:43:18.138Z,15.10
2018-10-09T07:44:27.474Z,14.90
2018-10-09T07:45:31.466Z,14.20
2018-10-09T07:46:51.545Z,15.40
2018-10-09T07:47:45.306Z,15.60
2018-10-09T07:48:49.109Z,14.80
2018-10-09T07:51:04.287Z,14.40
2018-10-09T07:52:08.082Z,14.90
2018-10-09T07:53:10.339Z,15.90
2018-10-09T07:54:22.333Z,16.30
2018-10-09T07:55:17.334Z,15.00
2018-10-09T07:56:31.265Z,16.00
2018-10-09T07:57:34.650Z,16.10
2018-10-09T08:01:59.261Z,14.60
2018-10-09T08:03:09.100Z,15.40
2018-10-09T08:04:16.692Z,15.30
2018-10-09T08:05:09.324Z,14.90
2018-10-09T08:06:17.321Z,13.90
2018-10-09T08:09:31.792Z,15.30
2018-10-09T08:10:31.071Z,15.10
2018-10-09T08:11:39.694Z,15.10
2018-10-09T08:12:49.843Z,14.60
2018-10-09T08:13:50.671Z,14.90
2018-10-09T08:15:02.685Z,15.80
2018-10-09T08:16:07.710Z,15.20
2018-10-09T08:17:28.688Z,15.90
2018-10-09T08:18:23.374Z,15.40
2018-10-09T08:20:34.764Z,15.70
2018-10-09T08:21:43.164Z,15.10
2018-10-09T08:22:52.455Z,15.40
2018-10-09T08:24:01.616Z,15.40
2018-10-09T08:25:12.185Z,14.80
2018-10-09T08:26:12.093Z,14.60
2018-10-09T08:27:09.324Z,15.20
2018-10-09T08:28:10.389Z,15.20
2018-10-09T08:29:16.718Z,14.90
2018-10-09T08:31:39.265Z,16.00
2018-10-09T08:32:28.109Z,16.10
2018-10-09T08:33:36.516Z,16.10
2018-10-09T08:34:39.759Z,15.90
2018-10-09T08:35:50.463Z,17.40
2018-10-09T08:36:57.040Z,16.60
2018-10-09T08:38:05.124Z,15.60
2018-10-09T08:38:58.577Z,16.80
2018-10-09T08:40:15.829Z,16.20
2018-10-09T08:41:17.197Z,16.70
2018-10-09T08:42:30.758Z,16.20
2018-10-09T08:43:38.041Z,16.30
2018-10-09T08:44:31.491Z,16.20
2018-10-09T08:45:38.361Z,16.50
2018-10-09T08:48:06.851Z,16.00
2018-10-09T08:49:02.246Z,16.30
2018-10-09T08:49:56.116Z,16.70
2018-10-09T08:51:12.814Z,16.90
2018-10-09T08:52:13.232Z,17.50
2018-10-09T08:53:17.134Z,17.60
2018-10-09T08:54:21.132Z,17.00
2018-10-09T08:56:35.692Z,17.00
2018-10-09T08:57:41.845Z,17.50
2018-10-09T08:58:43.390Z,17.30
2018-10-09T08:59:52.408Z,16.50
2018-10-09T09:01:01.120Z,16.60
2018-10-09T09:03:06.055Z,16.60
2018-10-09T09:04:10.572Z,17.10
2018-10-09T09:05:18.058Z,16.70
2018-10-09T09:06:15.814Z,16.80
2018-10-09T09:07:19.204Z,16.80
2018-10-09T09:08:34.778Z,16.00
2018-10-09T09:09:42.029Z,17.10
2018-10-09T09:13:04.412Z,16.60
2018-10-09T09:14:01.022Z,16.80
2018-10-09T09:16:05.051Z,16.20
2018-10-09T09:17:26.973Z,17.40
2018-10-09T09:18:39.886Z,16.60
2018-10-09T09:19:43.376Z,17.30
2018-10-09T09:21:24.758Z,17.10
2018-10-09T09:22:56.716Z,17.60
2018-10-09T09:24:06.964Z,17.30
2018-10-09T09:25:25.099Z,17.90
2018-10-09T09:27:11.297Z,18.20
2018-10-09T09:28:13.453Z,18.80
2018-10-09T09:29:45.206Z,17.00
2018-10-09T09:30:48.080Z,18.00
2018-10-09T09:31:36.007Z,18.50
2018-10-09T09:33:37.973Z,18.30
2018-10-09T09:34:45.049Z,18.00
2018-10-09T09:37:54.394Z,18.10
2018-10-09T09:41:00.592Z,18.60
2018-10-09T09:42:18.394Z,17.60
2018-10-09T09:43:16.353Z,18.50
2018-10-09T09:44:24.255Z,18.50
2018-10-09T09:46:34.200Z,18.80
2018-10-09T09:47:43.835Z,18.70
2018-10-09T09:48:38.415Z,18.10
2018-10-09T09:50:52.157Z,18.00
2018-10-09T09:51:55.250Z,17.60
2018-10-09T09:55:17.593Z,16.80
2018-10-09T09:56:16.277Z,17.00
2018-10-09T09:57:29.383Z,16.50
2018-10-09T09:58:27.519Z,16.20
2018-10-09T09:59:38.726Z,17.00
2018-10-09T10:02:59.331Z,19.30
2018-10-09T10:03:57.291Z,32.20
2018-10-09T10:05:01.508Z,25.90
2018-10-09T10:06:10.424Z,20.00
2018-10-09T10:07:11.861Z,21.70
2018-10-09T10:08:22.929Z,19.00
2018-10-09T10:09:47.013Z,20.10
2018-10-09T10:10:34.521Z,18.90
2018-10-09T10:11:39.550Z,19.30
2018-10-09T10:12:45.595Z,20.10
2018-10-09T10:15:07.732Z,20.00
2018-10-09T10:15:59.556Z,19.30
2018-10-09T10:17:06.113Z,18.80
2018-10-09T10:19:16.071Z,18.10
2018-10-09T10:20:28.165Z,16.60
2018-10-09T10:21:28.695Z,18.40
2018-10-09T10:22:25.933Z,18.30
2018-10-09T10:23:35.147Z,17.40
2018-10-09T10:24:49.187Z,18.40
2018-10-09T10:25:51.251Z,18.50
2018-10-09T10:28:10.208Z,17.70
2018-10-09T10:29:05.202Z,17.10
2018-10-09T10:30:19.750Z,17.00
2018-10-09T10:31:11.055Z,17.30
2018-10-09T10:32:19.367Z,17.30
2018-10-09T10:34:33.620Z,18.00
2018-10-09T10:35:46.439Z,16.50
2018-10-09T10:36:49.459Z,17.00
2018-10-09T10:37:50.436Z,17.20
2018-10-09T10:38:56.389Z,16.70
2018-10-09T10:39:57.519Z,17.20
2018-10-09T10:41:10.329Z,17.90
2018-10-09T10:42:22.424Z,17.10
2018-10-09T10:43:34.600Z,17.20
2018-10-09T10:44:22.748Z,16.90
2018-10-09T10:45:42.521Z,17.00
2018-10-09T10:46:38.435Z,17.30
2018-10-09T10:47:45.199Z,18.10
2018-10-09T10:48:44.798Z,17.40
2018-10-09T10:49:55.044Z,18.20
2018-10-09T10:51:06.840Z,17.00
2018-10-09T10:52:00.592Z,16.70
2018-10-09T10:53:09.919Z,17.10
2018-10-09T10:54:18.943Z,17.00
2018-10-09T10:55:25.915Z,16.40
2018-10-09T10:56:32.170Z,16.60
2018-10-09T10:57:42.389Z,17.00
2018-10-09T10:58:53.896Z,16.70
2018-10-09T11:00:08.037Z,16.80
2018-10-09T11:02:00.885Z,16.50
2018-10-09T11:03:34.787Z,18.10
2018-10-09T11:04:18.312Z,15.90
2018-10-09T11:05:26.922Z,15.60
2018-10-09T11:07:21.009Z,15.40
2018-10-09T11:08:34.553Z,15.00
2018-10-09T11:09:45.395Z,15.30
2018-10-09T11:10:49.812Z,16.40
2018-10-09T11:11:52.067Z,16.50
2018-10-09T11:12:50.140Z,16.50
2018-10-09T11:14:12.262Z,16.40
2018-10-09T11:14:55.890Z,16.90
2018-10-09T11:16:12.583Z,17.00
2018-10-09T11:17:21.707Z,18.90
2018-10-09T11:19:19.783Z,16.40
2018-10-09T11:20:35.663Z,15.00
2018-10-09T11:21:30.571Z,16.70
2018-10-09T11:22:41.005Z,16.10
2018-10-09T11:23:42.585Z,16.90
2018-10-09T11:24:56.589Z,16.10
2018-10-09T11:25:53.119Z,15.40
2018-10-09T11:27:10.225Z,15.10
2018-10-09T11:28:01.340Z,16.60
2018-10-09T11:29:20.075Z,16.60
2018-10-09T11:30:26.026Z,16.30
2018-10-09T11:31:22.347Z,16.70
2018-10-09T11:32:27.534Z,16.70
2018-10-09T11:33:28.308Z,16.10
2018-10-09T11:34:39.064Z,15.50
2018-10-09T11:35:47.481Z,15.90
2018-10-09T11:37:00.386Z,15.40
2018-10-09T11:37:49.131Z,14.50
2018-10-09T11:39:05.313Z,14.80
2018-10-09T11:40:09.728Z,16.00
2018-10-09T11:41:13.835Z,16.50
2018-10-09T11:42:21.520Z,15.60
2018-10-09T11:43:23.579Z,16.50
2018-10-09T11:44:31.796Z,15.30
2018-10-09T11:45:38.278Z,15.90
2018-10-09T11:46:44.498Z,15.10
2018-10-09T11:47:54.031Z,14.00
2018-10-09T11:48:55.893Z,13.90
2018-10-09T11:49:55.377Z,15.10
2018-10-09T11:50:53.252Z,13.80
2018-10-09T11:52:11.166Z,13.40
2018-10-09T11:53:29.098Z,12.50
2018-10-09T11:56:30.143Z,13.80
2018-10-09T11:57:43.056Z,14.30
2018-10-09T11:58:45.250Z,13.30
2018-10-09T11:59:59.560Z,13.20
2018-10-09T12:02:04.391Z,12.60
2018-10-09T12:03:11.572Z,13.20
2018-10-09T12:04:14.447Z,13.20
2018-10-09T12:05:12.101Z,12.70
2018-10-09T12:06:17.950Z,13.80
2018-10-09T12:07:33.625Z,12.70
2018-10-09T12:08:54.008Z,14.50
2018-10-09T12:09:40.809Z,14.20
2018-10-09T12:10:54.027Z,14.50
2018-10-09T12:12:01.102Z,13.20
2018-10-09T12:13:04.593Z,12.70
2018-10-09T12:14:20.475Z,11.90
2018-10-09T12:16:26.950Z,11.10
2018-10-09T12:18:10.370Z,12.30
2018-10-09T12:18:32.489Z,11.70
2018-10-09T12:19:37.616Z,12.40
2018-10-09T12:20:52.373Z,11.00
2018-10-09T12:21:52.487Z,16.40
2018-10-09T12:23:05.506Z,12.50
2018-10-09T12:24:10.016Z,13.50
2018-10-09T12:24:58.556Z,13.80
2018-10-09T12:26:14.951Z,13.90
2018-10-09T12:27:13.653Z,13.30
2018-10-09T12:28:38.521Z,13.40
2018-10-09T12:29:30.747Z,13.00
2018-10-09T12:30:26.977Z,12.50
2018-10-09T12:31:49.922Z,14.00
2018-10-09T12:32:47.933Z,13.90
2018-10-09T12:34:10.211Z,13.40
2018-10-09T12:35:00.084Z,13.60
2018-10-09T12:36:02.240Z,11.90
2018-10-09T12:37:13.614Z,13.80
2018-10-09T12:38:08.101Z,13.90
2018-10-09T12:39:16.401Z,13.20
2018-10-09T12:40:37.603Z,12.10
2018-10-09T12:42:39.981Z,11.90
2018-10-09T12:43:36.198Z,11.80
2018-10-09T12:44:40.714Z,12.20
2018-10-09T12:45:59.672Z,11.30
2018-10-09T12:47:09.002Z,10.80
2018-10-09T12:48:11.976Z,9.30
2018-10-09T12:50:13.639Z,9.00
2018-10-09T12:51:30.130Z,9.50
2018-10-09T12:52:28.807Z,9.40
2018-10-09T12:53:37.212Z,9.20
2018-10-09T12:54:45.933Z,9.90
2018-10-09T12:56:47.891Z,9.40
2018-10-09T12:58:02.140Z,9.00
2018-10-09T13:00:09.323Z,8.00
2018-10-09T13:01:07.079Z,7.90
2018-10-09T13:02:25.112Z,7.60
2018-10-09T13:03:30.960Z,7.20
2018-10-09T13:04:29.432Z,7.30
2018-10-09T13:07:45.849Z,7.60
2018-10-09T13:09:02.135Z,7.30
2018-10-09T13:09:53.130Z,6.80
2018-10-09T13:12:02.060Z,6.50
2018-10-09T13:13:23.887Z,7.00
2018-10-09T13:14:26.565Z,6.80
2018-10-09T13:15:24.203Z,6.40
2018-10-09T13:16:31.175Z,6.00
2018-10-09T13:17:40.363Z,6.10
2018-10-09T13:18:54.855Z,6.50
2018-10-09T13:19:50.145Z,6.40
2018-10-09T13:20:54.671Z,6.70
2018-10-09T13:22:08.148Z,6.30
2018-10-09T13:23:03.996Z,6.40
2018-10-09T13:24:18.339Z,6.80
2018-10-09T13:25:21.319Z,6.70
2018-10-09T13:26:18.265Z,6.60
2018-10-09T13:27:16.163Z,6.20
2018-10-09T13:28:37.730Z,6.50
2018-10-09T13:30:48.257Z,5.80
2018-10-09T13:31:38.986Z,5.20
2018-10-09T13:35:03.898Z,5.60
2018-10-09T13:36:23.058Z,5.70
2018-10-09T13:39:18.170Z,5.50
2018-10-09T13:40:28.522Z,5.70
2018-10-09T13:41:34.381Z,6.00
2018-10-09T13:42:40.004Z,5.40
2018-10-09T13:44:09.972Z,5.20
2018-10-09T13:45:04.297Z,5.30
2018-10-09T13:46:05.019Z,5.10
2018-10-09T13:47:07.429Z,4.90
2018-10-09T13:48:16.298Z,5.00
2018-10-09T13:49:19.891Z,4.70
2018-10-09T13:50:15.447Z,4.70
2018-10-09T13:51:32.098Z,4.90
2018-10-09T13:52:35.174Z,5.40
2018-10-09T13:53:35.497Z,5.10
2018-10-09T13:54:38.571Z,5.10
2018-10-09T13:55:41.960Z,5.00
2018-10-09T13:57:05.147Z,5.10
2018-10-09T13:58:07.389Z,4.80
2018-10-09T13:59:02.877Z,5.10
2018-10-09T14:00:16.777Z,4.70
2018-10-09T14:01:14.058Z,4.80
2018-10-09T14:02:25.333Z,5.00
2018-10-09T14:03:26.572Z,4.70
2018-10-09T14:04:37.434Z,4.50
2018-10-09T14:05:33.763Z,4.40
2018-10-09T14:06:44.726Z,5.10
2018-10-09T14:07:46.886Z,4.70
2018-10-09T14:08:58.679Z,4.60
2018-10-09T14:10:00.946Z,4.70
2018-10-09T14:12:12.432Z,4.10
2018-10-09T14:13:13.770Z,4.20
2018-10-09T14:14:21.256Z,4.20
2018-10-09T14:15:32.213Z,4.30
2018-10-09T14:16:33.453Z,4.20
2018-10-09T14:17:37.247Z,4.40
2018-10-09T14:18:38.388Z,4.40
2018-10-09T14:20:48.747Z,4.30
2018-10-09T14:22:03.710Z,4.60
2018-10-09T14:23:26.139Z,4.70
2018-10-09T14:24:33.523Z,4.50
2018-10-09T14:25:15.915Z,4.50
2018-10-09T14:26:09.992Z,4.10
2018-10-09T14:29:35.202Z,4.10
2018-10-09T14:30:34.394Z,3.70
2018-10-09T14:31:38.702Z,4.20
2018-10-09T14:32:47.412Z,4.40
2018-10-09T14:33:57.560Z,4.10
2018-10-09T14:37:10.495Z,4.00
2018-10-09T14:38:23.197Z,4.10
2018-10-09T14:39:25.357Z,4.10
2018-10-09T14:40:43.394Z,4.00
2018-10-09T14:41:31.109Z,4.70
2018-10-09T14:42:38.492Z,4.50
2018-10-09T14:43:52.540Z,4.40
2018-10-09T14:46:19.790Z,4.30
2018-10-09T14:48:11.823Z,4.30
2018-10-09T14:49:21.045Z,4.20
2018-10-09T14:50:31.808Z,4.40
2018-10-09T14:53:54.361Z,4.30
2018-10-09T14:54:59.387Z,4.20
2018-10-09T14:55:50.487Z,4.50
2018-10-09T14:57:07.699Z,4.60
2018-10-09T14:59:41.819Z,4.70
2018-10-09T15:00:36.918Z,4.60
2018-10-09T15:01:25.959Z,4.50
2018-10-09T15:04:02.952Z,4.60
2018-10-09T15:05:10.911Z,4.70
2018-10-09T15:06:47.216Z,4.60
2018-10-09T15:07:22.938Z,5.00
2018-10-09T15:08:46.808Z,5.00
2018-10-09T15:10:04.037Z,4.90
2018-10-09T15:12:56.734Z,5.00
2018-10-09T15:14:08.155Z,4.40
2018-10-09T15:15:10.219Z,4.80
2018-10-09T15:16:06.847Z,4.60
2018-10-09T15:17:21.412Z,4.60
2018-10-09T15:18:16.686Z,4.30
2018-10-09T15:19:23.764Z,4.20
2018-10-09T15:21:40.777Z,5.00
2018-10-09T15:22:48.262Z,5.20
2018-10-09T15:23:37.823Z,5.00
2018-10-09T15:24:52.691Z,5.20
2018-10-09T15:25:47.978Z,5.20
2018-10-09T15:27:08.573Z,5.20
2018-10-09T15:27:57.933Z,5.00
2018-10-09T15:29:21.596Z,5.30
2018-10-09T15:30:09.934Z,5.10
2018-10-09T15:31:28.788Z,4.90
2018-10-09T15:32:20.596Z,4.60
2018-10-09T15:33:46.618Z,4.60
2018-10-09T15:34:42.020Z,4.50
2018-10-09T15:36:49.206Z,4.70
2018-10-09T15:38:09.695Z,4.30
2018-10-09T15:38:56.287Z,4.60
2018-10-09T15:40:06.329Z,4.30
2018-10-09T15:41:18.076Z,4.20
2018-10-09T15:42:17.924Z,4.80
2018-10-09T15:43:21.619Z,4.40
2018-10-09T15:44:28.998Z,4.50
2018-10-09T15:45:34.026Z,4.70
2018-10-09T15:46:32.296Z,4.80
2018-10-09T15:47:57.290Z,4.70
2018-10-09T15:48:43.167Z,4.50
2018-10-09T15:49:51.990Z,4.70
2018-10-09T15:50:57.931Z,4.50
2018-10-09T15:52:10.749Z,4.20
2018-10-09T15:53:15.460Z,4.20
2018-10-09T15:54:10.760Z,4.30
2018-10-09T15:55:17.015Z,4.60
2018-10-09T15:56:26.918Z,4.10
2018-10-09T15:57:51.033Z,4.20
2018-10-09T15:58:50.935Z,5.10
2018-10-09T16:00:53.866Z,4.70
2018-10-09T16:01:59.864Z,4.70
2018-10-09T16:03:10.945Z,5.10
2018-10-09T16:04:10.050Z,4.90
2018-10-09T16:05:11.436Z,5.00
2018-10-09T16:06:20.438Z,5.10
2018-10-09T16:07:38.439Z,5.00
2018-10-09T16:09:40.940Z,5.20
2018-10-09T16:10:42.440Z,4.90
2018-10-09T16:12:57.942Z,5.30
2018-10-09T16:13:58.443Z,5.10
2018-10-09T16:15:01.951Z,5.30
2018-10-09T16:16:07.944Z,5.70
2018-10-09T16:17:30.950Z,5.60
2018-10-09T16:18:22.946Z,5.40
2018-10-09T16:19:31.445Z,5.80
2018-10-09T16:20:20.947Z,5.60
2018-10-09T16:21:39.947Z,5.80
2018-10-09T16:22:52.448Z,5.10
2018-10-09T16:23:50.947Z,5.70
2018-10-09T16:25:01.450Z,5.90
2018-10-09T16:25:58.447Z,5.80
2018-10-09T16:26:59.949Z,5.30
2018-10-09T16:28:24.949Z,5.80
2018-10-09T16:29:14.240Z,5.70
2018-10-09T16:30:25.452Z,5.30
2018-10-09T16:32:37.097Z,5.40
2018-10-09T16:33:35.553Z,5.60
2018-10-09T16:34:44.960Z,5.80
2018-10-09T16:35:51.453Z,5.80
2018-10-09T16:36:51.955Z,6.50
2018-10-09T16:38:00.185Z,6.60
2018-10-09T16:39:03.373Z,7.50
2018-10-09T16:41:18.440Z,6.50
2018-10-09T16:43:34.456Z,7.60
2018-10-09T16:44:27.966Z,6.70
2018-10-09T16:48:49.460Z,7.10
2018-10-09T16:49:58.977Z,7.20
2018-10-09T16:51:18.430Z,7.40